KEED/EED METAR and TAF weather

Enter ICAO airport designator
Station Type Date Time Source
KEED METAR 2021/03/08 02:56 UTC NOAA

KEED 080256Z AUTO 17003KT 10SM CLR 23/M07 A2990 RMK AO2 SLP108 T02331072 55002 $


Station Type Date Time Source
KEED Decoded METAR 2021/03/08 02:56 UTC NOAA

NEEDLES AIRPORT, CA, United States (KEED) 34-46N 114-37W
Mar 07, 2021 - 09:56 PM EST / 2021.03.08 0256 UTC
Wind: from the S (170 degrees) at 3 MPH (3 KT):0
Visibility: 10 mile(s):0
Sky conditions: clear
Temperature: 73.9 F (23.3 C)
Dew Point: 19.0 F (-7.2 C)
Relative Humidity: 12%
Pressure (altimeter): 29.9 in. Hg (1012 hPa)
Pressure tendency: 0.01 inches (0.2 hPa) lower than three hours ago
ob: KEED 080256Z AUTO 17003KT 10SM CLR 23/M07 A2990 RMK AO2 SLP108 T02331072 55002
cycle: 3

Station Type Date Time Source
KEED TAF 2021/03/07 21:36 UTC NOAA

TAF
AMD KEED 072032Z 0721/0818 17009KT P6SM BKN250
FM080200 21010KT P6SM BKN150 BKN200
FM081000 VRB05KT P6SM FEW150

Example: see airport list